sensor_id;sensor_type;location;lat;lon;timestamp;pressure;altitude;pressure_sealevel;temperature;humidity
48680;BME280;34475;51.658;5.634;2022-12-18T00:00:00;102600;;;-4.8;100.0
48680;BME280;34475;51.658;5.634;2022-12-18T00:01:00;102600;;;-4.8;100.0
48680;BME280;34475;51.658;5.634;2022-12-18T00:02:00;102610;;;-4.9;100.0
48680;BME280;34475;51.658;5.634;2022-12-18T00:03:00;102610;;;-4.9;100.0
48680;BME280;34475;51.658;5.634;2022-12-18T00:04:01;102600;;;-4.9;100.0
48680;BME280;34475;51.658;5.634;2022-12-18T00:05:00;102600;;;-4.9;100.0
48680;BME280;34475;51.658;5.634;2022-12-18T00:06:00;102610;;;-5.0;100.0
48680;BME280;34475;51.658;5.634;2022-12-18T00:07:00;102610;;;-5.0;100.0
48680;BME280;34475;51.658;5.634;2022-12-18T00:08:00;102610;;;-5.3;100.0
48680;BME280;34475;51.658;5.634;2022-12-18T00:09:00;102610;;;-5.3;100.0
48680;BME280;34475;51.658;5.634;2022-12-18T00:10:00;102620;;;-5.2;100.0
48680;BME280;34475;51.658;5.634;2022-12-18T00:11:04;102620;;;-5.2;100.0
48680;BME280;34475;51.658;5.634;2022-12-18T00:12:00;102630;;;-5.2;100.0
48680;BME280;34475;51.658;5.634;2022-12-18T00:13:00;102630;;;-5.2;100.0
48680;BME280;34475;51.658;5.634;2022-12-18T00:14:00;102620;;;-5.2;100.0
48680;BME280;34475;51.658;5.634;2022-12-18T00:15:00;102620;;;-5.2;100.0
48680;BME280;34475;51.658;5.634;2022-12-18T00:16:02;102620;;;-5.2;100.0
48680;BME280;34475;51.658;5.634;2022-12-18T00:17:00;102620;;;-5.2;100.0
48680;BME280;34475;51.658;5.634;2022-12-18T00:18:00;102610;;;-5.2;100.0
48680;BME280;34475;51.658;5.634;2022-12-18T00:19:00;102610;;;-5.2;100.0
48680;BME280;34475;51.658;5.634;2022-12-18T00:20:00;102620;;;-5.2;100.0
48680;BME280;34475;51.658;5.634;2022-12-18T00:21:00;102620;;;-5.2;100.0
48680;BME280;34475;51.658;5.634;2022-12-18T00:22:00;102610;;;-5.2;100.0
48680;BME280;34475;51.658;5.634;2022-12-18T00:23:00;102610;;;-5.2;100.0
48680;BME280;34475;51.658;5.634;2022-12-18T00:24:00;102610;;;-5.2;100.0
48680;BME280;34475;51.658;5.634;2022-12-18T00:25:00;102610;;;-5.2;100.0
48680;BME280;34475;51.658;5.634;2022-12-18T00:26:00;102610;;;-5.4;100.0
48680;BME280;34475;51.658;5.634;2022-12-18T00:27:00;102610;;;-5.4;100.0
48680;BME280;34475;51.658;5.634;2022-12-18T00:28:00;102610;;;-5.3;100.0
48680;BME280;34475;51.658;5.634;2022-12-18T00:29:02;102610;;;-5.3;100.0
48680;BME280;34475;51.658;5.634;2022-12-18T00:30:00;102600;;;-5.2;100.0
48680;BME280;34475;51.658;5.634;2022-12-18T00:31:01;102600;;;-5.2;100.0
48680;BME280;34475;51.658;5.634;2022-12-18T00:32:00;102600;;;-5.5;100.0
48680;BME280;34475;51.658;5.634;2022-12-18T00:33:00;102600;;;-5.5;100.0
48680;BME280;34475;51.658;5.634;2022-12-18T00:34:00;102600;;;-5.6;100.0
48680;BME280;34475;51.658;5.634;2022-12-18T00:35:00;102600;;;-5.6;100.0
48680;BME280;34475;51.658;5.634;2022-12-18T00:36:01;102600;;;-5.4;100.0
48680;BME280;34475;51.658;5.634;2022-12-18T00:37:00;102600;;;-5.4;100.0
48680;BME280;34475;51.658;5.634;2022-12-18T00:38:00;102600;;;-5.3;100.0
48680;BME280;34475;51.658;5.634;2022-12-18T00:39:01;102600;;;-5.3;100.0
48680;BME280;34475;51.658;5.634;2022-12-18T00:40:00;102600;;;-5.4;100.0
48680;BME280;34475;51.658;5.634;2022-12-18T00:41:00;102600;;;-5.4;100.0
48680;BME280;34475;51.658;5.634;2022-12-18T00:42:00;102600;;;-5.3;100.0
48680;BME280;34475;51.658;5.634;2022-12-18T00:43:00;102600;;;-5.3;100.0
48680;BME280;34475;51.658;5.634;2022-12-18T00:44:00;102600;;;-5.1;100.0
48680;BME280;34475;51.658;5.634;2022-12-18T00:45:00;102600;;;-5.1;100.0
48680;BME280;34475;51.658;5.634;2022-12-18T00:46:00;102600;;;-5.3;100.0
48680;BME280;34475;51.658;5.634;2022-12-18T00:47:00;102600;;;-5.3;100.0
48680;BME280;34475;51.658;5.634;2022-12-18T00:48:00;102600;;;-5.4;100.0
48680;BME280;34475;51.658;5.634;2022-12-18T00:49:00;102600;;;-5.4;100.0
48680;BME280;34475;51.658;5.634;2022-12-18T00:50:00;102600;;;-5.4;100.0
48680;BME280;34475;51.658;5.634;2022-12-18T00:51:00;102600;;;-5.4;100.0
48680;BME280;34475;51.658;5.634;2022-12-18T00:52:00;102600;;;-5.6;100.0
48680;BME280;34475;51.658;5.634;2022-12-18T00:53:00;102600;;;-5.6;100.0
48680;BME280;34475;51.658;5.634;2022-12-18T00:54:00;102600;;;-5.5;100.0
48680;BME280;34475;51.658;5.634;2022-12-18T00:55:00;102600;;;-5.5;100.0
48680;BME280;34475;51.658;5.634;2022-12-18T00:56:00;102600;;;-5.6;100.0
48680;BME280;34475;51.658;5.634;2022-12-18T00:57:00;102600;;;-5.6;100.0
48680;BME280;34475;51.658;5.634;2022-12-18T00:58:00;102600;;;-5.8;100.0
48680;BME280;34475;51.658;5.634;2022-12-18T00:59:00;102600;;;-5.8;100.0
48680;BME280;34475;51.658;5.634;2022-12-18T01:00:00;102600;;;-5.8;100.0
48680;BME280;34475;51.658;5.634;2022-12-18T01:01:00;102600;;;-5.8;100.0
48680;BME280;34475;51.658;5.634;2022-12-18T01:02:00;102590;;;-5.8;100.0
48680;BME280;34475;51.658;5.634;2022-12-18T01:03:00;102590;;;-5.8;100.0
48680;BME280;34475;51.658;5.634;2022-12-18T01:04:00;102590;;;-5.8;100.0
48680;BME280;34475;51.658;5.634;2022-12-18T01:05:00;102590;;;-5.8;100.0
48680;BME280;34475;51.658;5.634;2022-12-18T01:06:04;102600;;;-5.8;100.0
48680;BME280;34475;51.658;5.634;2022-12-18T01:07:00;102600;;;-5.8;100.0
48680;BME280;34475;51.658;5.634;2022-12-18T01:08:00;102600;;;-5.7;100.0
48680;BME280;34475;51.658;5.634;2022-12-18T01:09:00;102600;;;-5.7;100.0
48680;BME280;34475;51.658;5.634;2022-12-18T01:10:00;102600;;;-5.7;100.0
48680;BME280;34475;51.658;5.634;2022-12-18T01:11:00;102600;;;-5.7;100.0
48680;BME280;34475;51.658;5.634;2022-12-18T01:12:00;102600;;;-5.7;100.0
48680;BME280;34475;51.658;5.634;2022-12-18T01:13:00;102600;;;-5.7;100.0
48680;BME280;34475;51.658;5.634;2022-12-18T01:14:00;102610;;;-5.7;100.0
48680;BME280;34475;51.658;5.634;2022-12-18T01:15:00;102610;;;-5.7;100.0
48680;BME280;34475;51.658;5.634;2022-12-18T01:16:00;102620;;;-5.8;100.0
48680;BME280;34475;51.658;5.634;2022-12-18T01:17:00;102620;;;-5.8;100.0
48680;BME280;34475;51.658;5.634;2022-12-18T01:18:00;102620;;;-5.7;100.0
48680;BME280;34475;51.658;5.634;2022-12-18T01:19:00;102620;;;-5.7;100.0
48680;BME280;34475;51.658;5.634;2022-12-18T01:20:00;102620;;;-5.8;100.0
48680;BME280;34475;51.658;5.634;2022-12-18T01:21:00;102620;;;-5.8;100.0
48680;BME280;34475;51.658;5.634;2022-12-18T01:22:00;102620;;;-5.7;100.0
48680;BME280;34475;51.658;5.634;2022-12-18T01:23:00;102620;;;-5.7;100.0
48680;BME280;34475;51.658;5.634;2022-12-18T01:24:00;102620;;;-5.8;100.0
48680;BME280;34475;51.658;5.634;2022-12-18T01:25:00;102620;;;-5.8;100.0
48680;BME280;34475;51.658;5.634;2022-12-18T01:26:08;102620;;;-5.7;100.0
48680;BME280;34475;51.658;5.634;2022-12-18T01:27:00;102620;;;-5.7;100.0
48680;BME280;34475;51.658;5.634;2022-12-18T01:28:00;102620;;;-5.6;100.0
48680;BME280;34475;51.658;5.634;2022-12-18T01:29:00;102620;;;-5.6;100.0
48680;BME280;34475;51.658;5.634;2022-12-18T01:30:00;102620;;;-5.7;100.0
48680;BME280;34475;51.658;5.634;2022-12-18T01:32:00;102620;;;-5.7;100.0
48680;BME280;34475;51.658;5.634;2022-12-18T01:33:00;102620;;;-5.7;100.0
48680;BME280;34475;51.658;5.634;2022-12-18T01:34:00;102620;;;-5.6;100.0
48680;BME280;34475;51.658;5.634;2022-12-18T01:35:00;102620;;;-5.6;100.0
48680;BME280;34475;51.658;5.634;2022-12-18T01:36:00;102610;;;-5.6;100.0
48680;BME280;34475;51.658;5.634;2022-12-18T01:37:01;102610;;;-5.6;100.0
48680;BME280;34475;51.658;5.634;2022-12-18T01:38:00;102610;;;-5.6;100.0
48680;BME280;34475;51.658;5.634;2022-12-18T01:39:00;102610;;;-5.6;100.0
48680;BME280;34475;51.658;5.634;2022-12-18T01:40:00;102600;;;-5.6;100.0
48680;BME280;34475;51.658;5.634;2022-12-18T01:41:00;102600;;;-5.6;100.0
48680;BME280;34475;51.658;5.634;2022-12-18T01:42:01;102610;;;-5.5;100.0
48680;BME280;34475;51.658;5.634;2022-12-18T01:43:00;102610;;;-5.5;100.0
48680;BME280;34475;51.658;5.634;2022-12-18T01:44:00;102600;;;-5.6;100.0
48680;BME280;34475;51.658;5.634;2022-12-18T01:46:00;102600;;;-5.9;100.0
48680;BME280;34475;51.658;5.634;2022-12-18T01:47:00;102600;;;-5.9;100.0
48680;BME280;34475;51.658;5.634;2022-12-18T01:48:02;102600;;;-5.8;100.0
48680;BME280;34475;51.658;5.634;2022-12-18T01:49:00;102600;;;-5.8;100.0
48680;BME280;34475;51.658;5.634;2022-12-18T01:50:02;102600;;;-5.8;100.0
48680;BME280;34475;51.658;5.634;2022-12-18T01:51:00;102600;;;-5.8;100.0
48680;BME280;34475;51.658;5.634;2022-12-18T01:52:00;102600;;;-5.8;100.0
48680;BME280;34475;51.658;5.634;2022-12-18T01:53:04;102600;;;-5.8;100.0
48680;BME280;34475;51.658;5.634;2022-12-18T01:54:00;102600;;;-5.8;100.0
48680;BME280;34475;51.658;5.634;2022-12-18T01:55:00;102600;;;-5.8;100.0
48680;BME280;34475;51.658;5.634;2022-12-18T01:56:00;102600;;;-5.8;100.0
48680;BME280;34475;51.658;5.634;2022-12-18T01:57:00;102600;;;-5.8;100.0
48680;BME280;34475;51.658;5.634;2022-12-18T01:58:00;102590;;;-5.9;100.0
48680;BME280;34475;51.658;5.634;2022-12-18T01:59:01;102590;;;-5.9;100.0
48680;BME280;34475;51.658;5.634;2022-12-18T02:00:00;102600;;;-5.8;100.0
48680;BME280;34475;51.658;5.634;2022-12-18T02:01:00;102600;;;-5.8;100.0
48680;BME280;34475;51.658;5.634;2022-12-18T02:02:00;102600;;;-5.9;100.0
48680;BME280;34475;51.658;5.634;2022-12-18T02:03:00;102600;;;-5.9;100.0
48680;BME280;34475;51.658;5.634;2022-12-18T02:04:31;102600;;;-5.8;100.0
48680;BME280;34475;51.658;5.634;2022-12-18T02:05:00;102600;;;-5.8;100.0
48680;BME280;34475;51.658;5.634;2022-12-18T02:06:06;102600;;;-6.0;100.0
48680;BME280;34475;51.658;5.634;2022-12-18T02:07:07;102600;;;-6.0;100.0
48680;BME280;34475;51.658;5.634;2022-12-18T02:10:10;102600;;;-6.0;100.0
48680;BME280;34475;51.658;5.634;2022-12-18T02:14:18;102600;;;-5.9;100.0
48680;BME280;34475;51.658;5.634;2022-12-18T02:15:04;102600;;;-5.9;100.0
48680;BME280;34475;51.658;5.634;2022-12-18T02:18:04;102600;;;-6.2;100.0
48680;BME280;34475;51.658;5.634;2022-12-18T02:19:00;102600;;;-6.2;100.0
48680;BME280;34475;51.658;5.634;2022-12-18T02:22:06;102590;;;-6.2;100.0
48680;BME280;34475;51.658;5.634;2022-12-18T02:24:12;102600;;;-6.1;100.0
48680;BME280;34475;51.658;5.634;2022-12-18T02:26:10;102600;;;-6.2;100.0
48680;BME280;34475;51.658;5.634;2022-12-18T02:27:02;102600;;;-6.2;100.0
48680;BME280;34475;51.658;5.634;2022-12-18T02:28:00;102600;;;-6.4;100.0
48680;BME280;34475;51.658;5.634;2022-12-18T02:29:02;102600;;;-6.4;100.0
48680;BME280;34475;51.658;5.634;2022-12-18T02:30:00;102600;;;-6.2;100.0
48680;BME280;34475;51.658;5.634;2022-12-18T02:31:01;102600;;;-6.2;100.0
48680;BME280;34475;51.658;5.634;2022-12-18T02:32:00;102600;;;-6.3;100.0
48680;BME280;34475;51.658;5.634;2022-12-18T02:33:00;102600;;;-6.3;100.0
48680;BME280;34475;51.658;5.634;2022-12-18T02:34:01;102600;;;-6.3;100.0
48680;BME280;34475;51.658;5.634;2022-12-18T02:35:00;102600;;;-6.3;100.0
48680;BME280;34475;51.658;5.634;2022-12-18T02:36:00;102590;;;-6.4;100.0
48680;BME280;34475;51.658;5.634;2022-12-18T02:37:00;102590;;;-6.4;100.0
48680;BME280;34475;51.658;5.634;2022-12-18T02:38:00;102600;;;-6.4;100.0
48680;BME280;34475;51.658;5.634;2022-12-18T02:39:00;102600;;;-6.4;100.0
48680;BME280;34475;51.658;5.634;2022-12-18T02:40:00;102590;;;-6.2;100.0
48680;BME280;34475;51.658;5.634;2022-12-18T02:41:00;102590;;;-6.2;100.0
48680;BME280;34475;51.658;5.634;2022-12-18T02:42:00;102590;;;-6.2;100.0
48680;BME280;34475;51.658;5.634;2022-12-18T02:43:12;102590;;;-6.2;100.0
48680;BME280;34475;51.658;5.634;2022-12-18T02:44:00;102590;;;-6.3;100.0
48680;BME280;34475;51.658;5.634;2022-12-18T02:45:00;102590;;;-6.3;100.0
48680;BME280;34475;51.658;5.634;2022-12-18T02:46:00;102590;;;-6.3;100.0
48680;BME280;34475;51.658;5.634;2022-12-18T02:47:00;102590;;;-6.3;100.0
48680;BME280;34475;51.658;5.634;2022-12-18T02:48:00;102590;;;-6.2;100.0
48680;BME280;34475;51.658;5.634;2022-12-18T02:49:03;102590;;;-6.2;100.0
48680;BME280;34475;51.658;5.634;2022-12-18T02:54:19;102580;;;-6.4;100.0
48680;BME280;34475;51.658;5.634;2022-12-18T02:57:02;102580;;;-6.3;100.0
48680;BME280;34475;51.658;5.634;2022-12-18T03:00:06;102570;;;-6.4;100.0
48680;BME280;34475;51.658;5.634;2022-12-18T03:01:02;102570;;;-6.4;100.0
48680;BME280;34475;51.658;5.634;2022-12-18T03:02:03;102570;;;-6.5;100.0
48680;BME280;34475;51.658;5.634;2022-12-18T03:03:03;102570;;;-6.5;100.0
48680;BME280;34475;51.658;5.634;2022-12-18T03:04:02;102570;;;-6.6;100.0
48680;BME280;34475;51.658;5.634;2022-12-18T03:05:04;102570;;;-6.6;100.0
48680;BME280;34475;51.658;5.634;2022-12-18T03:06:01;102570;;;-6.6;100.0
48680;BME280;34475;51.658;5.634;2022-12-18T03:07:01;102570;;;-6.6;100.0
48680;BME280;34475;51.658;5.634;2022-12-18T03:08:05;102570;;;-6.5;100.0
48680;BME280;34475;51.658;5.634;2022-12-18T03:09:02;102570;;;-6.5;100.0
48680;BME280;34475;51.658;5.634;2022-12-18T03:10:00;102570;;;-6.5;100.0
48680;BME280;34475;51.658;5.634;2022-12-18T03:11:02;102570;;;-6.5;100.0
48680;BME280;34475;51.658;5.634;2022-12-18T03:12:03;102570;;;-6.5;100.0
48680;BME280;34475;51.658;5.634;2022-12-18T03:13:02;102570;;;-6.5;100.0
48680;BME280;34475;51.658;5.634;2022-12-18T03:14:00;102580;;;-6.5;100.0
48680;BME280;34475;51.658;5.634;2022-12-18T03:16:00;102570;;;-6.5;100.0
48680;BME280;34475;51.658;5.634;2022-12-18T03:17:01;102570;;;-6.5;100.0
48680;BME280;34475;51.658;5.634;2022-12-18T03:18:02;102570;;;-6.5;100.0
48680;BME280;34475;51.658;5.634;2022-12-18T03:19:01;102570;;;-6.5;100.0
48680;BME280;34475;51.658;5.634;2022-12-18T03:20:05;102570;;;-6.7;100.0
48680;BME280;34475;51.658;5.634;2022-12-18T03:21:01;102570;;;-6.7;100.0
48680;BME280;34475;51.658;5.634;2022-12-18T03:22:00;102570;;;-6.7;100.0
48680;BME280;34475;51.658;5.634;2022-12-18T03:23:02;102570;;;-6.7;100.0
48680;BME280;34475;51.658;5.634;2022-12-18T03:24:00;102570;;;-6.6;100.0
48680;BME280;34475;51.658;5.634;2022-12-18T03:25:00;102570;;;-6.6;100.0
48680;BME280;34475;51.658;5.634;2022-12-18T03:26:02;102570;;;-6.7;100.0
48680;BME280;34475;51.658;5.634;2022-12-18T03:27:01;102570;;;-6.7;100.0
48680;BME280;34475;51.658;5.634;2022-12-18T03:28:00;102560;;;-6.6;100.0
48680;BME280;34475;51.658;5.634;2022-12-18T03:29:02;102560;;;-6.6;100.0
48680;BME280;34475;51.658;5.634;2022-12-18T03:30:01;102560;;;-6.6;100.0
48680;BME280;34475;51.658;5.634;2022-12-18T03:31:00;102560;;;-6.6;100.0
48680;BME280;34475;51.658;5.634;2022-12-18T03:32:02;102570;;;-6.7;100.0
48680;BME280;34475;51.658;5.634;2022-12-18T03:34:02;102560;;;-6.8;100.0
48680;BME280;34475;51.658;5.634;2022-12-18T03:35:00;102560;;;-6.8;100.0
48680;BME280;34475;51.658;5.634;2022-12-18T03:36:00;102560;;;-6.7;100.0
48680;BME280;34475;51.658;5.634;2022-12-18T03:37:00;102560;;;-6.7;100.0
48680;BME280;34475;51.658;5.634;2022-12-18T03:38:00;102560;;;-6.7;100.0
48680;BME280;34475;51.658;5.634;2022-12-18T03:39:00;102560;;;-6.7;100.0
48680;BME280;34475;51.658;5.634;2022-12-18T03:40:00;102560;;;-6.8;100.0
48680;BME280;34475;51.658;5.634;2022-12-18T03:42:02;102560;;;-6.6;100.0
48680;BME280;34475;51.658;5.634;2022-12-18T03:43:03;102560;;;-6.6;100.0
48680;BME280;34475;51.658;5.634;2022-12-18T03:44:10;102560;;;-6.7;100.0
48680;BME280;34475;51.658;5.634;2022-12-18T03:45:02;102560;;;-6.7;100.0
48680;BME280;34475;51.658;5.634;2022-12-18T03:46:03;102550;;;-6.7;100.0
48680;BME280;34475;51.658;5.634;2022-12-18T03:47:04;102550;;;-6.7;100.0
48680;BME280;34475;51.658;5.634;2022-12-18T03:48:01;102540;;;-6.8;100.0
48680;BME280;34475;51.658;5.634;2022-12-18T03:49:02;102540;;;-6.8;100.0
48680;BME280;34475;51.658;5.634;2022-12-18T03:51:02;102540;;;-6.8;100.0
48680;BME280;34475;51.658;5.634;2022-12-18T03:52:03;102540;;;-6.7;100.0
48680;BME280;34475;51.658;5.634;2022-12-18T03:53:03;102540;;;-6.7;100.0
48680;BME280;34475;51.658;5.634;2022-12-18T03:54:01;102540;;;-6.8;100.0
48680;BME280;34475;51.658;5.634;2022-12-18T03:55:00;102540;;;-6.8;100.0
48680;BME280;34475;51.658;5.634;2022-12-18T03:56:00;102530;;;-6.9;100.0
48680;BME280;34475;51.658;5.634;2022-12-18T03:57:02;102530;;;-6.9;100.0
48680;BME280;34475;51.658;5.634;2022-12-18T03:58:00;102530;;;-6.9;100.0
48680;BME280;34475;51.658;5.634;2022-12-18T03:59:00;102530;;;-6.9;100.0
48680;BME280;34475;51.658;5.634;2022-12-18T04:00:02;102530;;;-7.0;100.0
48680;BME280;34475;51.658;5.634;2022-12-18T04:01:01;102530;;;-7.0;100.0
48680;BME280;34475;51.658;5.634;2022-12-18T04:02:00;102520;;;-7.0;100.0
48680;BME280;34475;51.658;5.634;2022-12-18T04:03:00;102520;;;-7.0;100.0
48680;BME280;34475;51.658;5.634;2022-12-18T04:04:00;102530;;;-7.0;100.0
48680;BME280;34475;51.658;5.634;2022-12-18T04:05:00;102530;;;-7.0;100.0
48680;BME280;34475;51.658;5.634;2022-12-18T04:06:00;102520;;;-7.0;100.0
48680;BME280;34475;51.658;5.634;2022-12-18T04:07:00;102520;;;-7.0;100.0
48680;BME280;34475;51.658;5.634;2022-12-18T04:08:00;102520;;;-7.0;100.0
48680;BME280;34475;51.658;5.634;2022-12-18T04:09:00;102520;;;-7.0;100.0
48680;BME280;34475;51.658;5.634;2022-12-18T04:10:00;102520;;;-7.0;100.0
48680;BME280;34475;51.658;5.634;2022-12-18T04:11:00;102520;;;-7.0;100.0
48680;BME280;34475;51.658;5.634;2022-12-18T04:12:00;102520;;;-6.9;100.0
48680;BME280;34475;51.658;5.634;2022-12-18T04:13:00;102520;;;-6.9;100.0
48680;BME280;34475;51.658;5.634;2022-12-18T04:14:00;102520;;;-6.8;100.0
48680;BME280;34475;51.658;5.634;2022-12-18T04:15:00;102520;;;-6.8;100.0
48680;BME280;34475;51.658;5.634;2022-12-18T04:16:00;102510;;;-6.7;100.0
48680;BME280;34475;51.658;5.634;2022-12-18T04:17:00;102510;;;-6.7;100.0
48680;BME280;34475;51.658;5.634;2022-12-18T04:18:00;102510;;;-6.8;100.0
48680;BME280;34475;51.658;5.634;2022-12-18T04:19:00;102510;;;-6.8;100.0
48680;BME280;34475;51.658;5.634;2022-12-18T04:20:00;102500;;;-6.9;100.0
48680;BME280;34475;51.658;5.634;2022-12-18T04:21:00;102500;;;-6.9;100.0
48680;BME280;34475;51.658;5.634;2022-12-18T04:22:00;102500;;;-6.9;100.0
48680;BME280;34475;51.658;5.634;2022-12-18T04:23:00;102500;;;-6.9;100.0
48680;BME280;34475;51.658;5.634;2022-12-18T04:24:00;102500;;;-6.9;100.0
48680;BME280;34475;51.658;5.634;2022-12-18T04:25:00;102500;;;-6.9;100.0
48680;BME280;34475;51.658;5.634;2022-12-18T04:26:00;102500;;;-6.9;100.0
48680;BME280;34475;51.658;5.634;2022-12-18T04:27:00;102500;;;-6.9;100.0
48680;BME280;34475;51.658;5.634;2022-12-18T04:28:00;102500;;;-6.9;100.0
48680;BME280;34475;51.658;5.634;2022-12-18T04:29:00;102500;;;-6.9;100.0
48680;BME280;34475;51.658;5.634;2022-12-18T04:30:00;102510;;;-6.9;100.0
48680;BME280;34475;51.658;5.634;2022-12-18T04:31:00;102510;;;-6.9;100.0
48680;BME280;34475;51.658;5.634;2022-12-18T04:32:00;102500;;;-6.8;100.0
48680;BME280;34475;51.658;5.634;2022-12-18T04:33:00;102500;;;-6.8;100.0
48680;BME280;34475;51.658;5.634;2022-12-18T04:34:00;102500;;;-6.8;100.0
48680;BME280;34475;51.658;5.634;2022-12-18T04:35:00;102500;;;-6.8;100.0
48680;BME280;34475;51.658;5.634;2022-12-18T04:36:00;102500;;;-6.7;100.0
48680;BME280;34475;51.658;5.634;2022-12-18T04:37:00;102500;;;-6.7;100.0
48680;BME280;34475;51.658;5.634;2022-12-18T04:38:00;102500;;;-6.9;100.0
48680;BME280;34475;51.658;5.634;2022-12-18T04:39:00;102500;;;-6.9;100.0
48680;BME280;34475;51.658;5.634;2022-12-18T04:40:00;102500;;;-7.0;100.0
48680;BME280;34475;51.658;5.634;2022-12-18T04:41:00;102500;;;-7.0;100.0
48680;BME280;34475;51.658;5.634;2022-12-18T04:42:00;102500;;;-6.9;100.0
48680;BME280;34475;51.658;5.634;2022-12-18T04:43:00;102500;;;-6.9;100.0
48680;BME280;34475;51.658;5.634;2022-12-18T04:44:00;102510;;;-6.9;100.0
48680;BME280;34475;51.658;5.634;2022-12-18T04:45:00;102510;;;-6.9;100.0
48680;BME280;34475;51.658;5.634;2022-12-18T04:46:02;102510;;;-6.9;100.0
48680;BME280;34475;51.658;5.634;2022-12-18T04:47:00;102510;;;-6.9;100.0
48680;BME280;34475;51.658;5.634;2022-12-18T04:48:00;102510;;;-6.9;100.0
48680;BME280;34475;51.658;5.634;2022-12-18T04:49:00;102510;;;-6.9;100.0
48680;BME280;34475;51.658;5.634;2022-12-18T04:50:00;102510;;;-6.8;100.0
48680;BME280;34475;51.658;5.634;2022-12-18T04:51:00;102510;;;-6.8;100.0
48680;BME280;34475;51.658;5.634;2022-12-18T04:52:00;102520;;;-6.9;100.0
48680;BME280;34475;51.658;5.634;2022-12-18T04:53:00;102520;;;-6.9;100.0
48680;BME280;34475;51.658;5.634;2022-12-18T04:54:00;102530;;;-6.7;100.0
48680;BME280;34475;51.658;5.634;2022-12-18T04:55:00;102530;;;-6.7;100.0
48680;BME280;34475;51.658;5.634;2022-12-18T04:56:02;102520;;;-6.8;100.0
48680;BME280;34475;51.658;5.634;2022-12-18T04:57:00;102520;;;-6.8;100.0
48680;BME280;34475;51.658;5.634;2022-12-18T04:58:00;102520;;;-6.7;100.0
48680;BME280;34475;51.658;5.634;2022-12-18T04:59:00;102520;;;-6.7;100.0
48680;BME280;34475;51.658;5.634;2022-12-18T05:00:00;102520;;;-6.8;100.0
48680;BME280;34475;51.658;5.634;2022-12-18T05:01:00;102520;;;-6.8;100.0
48680;BME280;34475;51.658;5.634;2022-12-18T05:02:00;102530;;;-6.7;100.0
48680;BME280;34475;51.658;5.634;2022-12-18T05:03:00;102530;;;-6.7;100.0
48680;BME280;34475;51.658;5.634;2022-12-18T05:04:00;102530;;;-6.7;100.0
48680;BME280;34475;51.658;5.634;2022-12-18T05:05:00;102530;;;-6.7;100.0
48680;BME280;34475;51.658;5.634;2022-12-18T05:06:00;102530;;;-6.6;100.0
48680;BME280;34475;51.658;5.634;2022-12-18T05:07:00;102530;;;-6.6;100.0
48680;BME280;34475;51.658;5.634;2022-12-18T05:08:00;102540;;;-6.6;100.0
48680;BME280;34475;51.658;5.634;2022-12-18T05:09:00;102540;;;-6.6;100.0
48680;BME280;34475;51.658;5.634;2022-12-18T05:10:00;102540;;;-6.7;100.0
48680;BME280;34475;51.658;5.634;2022-12-18T05:11:04;102540;;;-6.7;100.0
48680;BME280;34475;51.658;5.634;2022-12-18T05:12:00;102550;;;-6.6;100.0
48680;BME280;34475;51.658;5.634;2022-12-18T05:13:00;102550;;;-6.6;100.0
48680;BME280;34475;51.658;5.634;2022-12-18T05:14:00;102560;;;-6.7;100.0
48680;BME280;34475;51.658;5.634;2022-12-18T05:15:00;102560;;;-6.7;100.0
48680;BME280;34475;51.658;5.634;2022-12-18T05:16:00;102560;;;-6.7;100.0
48680;BME280;34475;51.658;5.634;2022-12-18T05:17:00;102560;;;-6.7;100.0
48680;BME280;34475;51.658;5.634;2022-12-18T05:18:00;102560;;;-6.6;100.0
48680;BME280;34475;51.658;5.634;2022-12-18T05:19:00;102560;;;-6.6;100.0
48680;BME280;34475;51.658;5.634;2022-12-18T05:20:00;102560;;;-6.5;100.0
48680;BME280;34475;51.658;5.634;2022-12-18T05:21:00;102560;;;-6.5;100.0
48680;BME280;34475;51.658;5.634;2022-12-18T05:22:00;102560;;;-6.5;100.0
48680;BME280;34475;51.658;5.634;2022-12-18T05:23:00;102560;;;-6.5;100.0
48680;BME280;34475;51.658;5.634;2022-12-18T05:24:00;102560;;;-6.7;100.0
48680;BME280;34475;51.658;5.634;2022-12-18T05:25:00;102560;;;-6.7;100.0
48680;BME280;34475;51.658;5.634;2022-12-18T05:26:01;102560;;;-6.7;100.0
48680;BME280;34475;51.658;5.634;2022-12-18T05:27:00;102560;;;-6.7;100.0
48680;BME280;34475;51.658;5.634;2022-12-18T05:28:00;102560;;;-6.8;100.0
48680;BME280;34475;51.658;5.634;2022-12-18T05:29:00;102560;;;-6.8;100.0
48680;BME280;34475;51.658;5.634;2022-12-18T05:30:00;102560;;;-6.7;100.0
48680;BME280;34475;51.658;5.634;2022-12-18T05:31:00;102560;;;-6.7;100.0
48680;BME280;34475;51.658;5.634;2022-12-18T05:32:00;102560;;;-6.7;100.0
48680;BME280;34475;51.658;5.634;2022-12-18T05:33:00;102560;;;-6.7;100.0
48680;BME280;34475;51.658;5.634;2022-12-18T05:34:00;102550;;;-6.7;100.0
48680;BME280;34475;51.658;5.634;2022-12-18T05:35:00;102550;;;-6.7;100.0
48680;BME280;34475;51.658;5.634;2022-12-18T05:36:01;102550;;;-6.6;100.0
48680;BME280;34475;51.658;5.634;2022-12-18T05:37:00;102550;;;-6.6;100.0
48680;BME280;34475;51.658;5.634;2022-12-18T05:38:00;102540;;;-6.7;100.0
48680;BME280;34475;51.658;5.634;2022-12-18T05:39:00;102540;;;-6.7;100.0
48680;BME280;34475;51.658;5.634;2022-12-18T05:40:00;102540;;;-6.7;100.0
48680;BME280;34475;51.658;5.634;2022-12-18T05:41:00;102540;;;-6.7;100.0
48680;BME280;34475;51.658;5.634;2022-12-18T05:42:00;102540;;;-6.8;100.0
48680;BME280;34475;51.658;5.634;2022-12-18T05:43:00;102540;;;-6.8;100.0
48680;BME280;34475;51.658;5.634;2022-12-18T05:44:00;102540;;;-6.8;100.0
48680;BME280;34475;51.658;5.634;2022-12-18T05:45:00;102540;;;-6.8;100.0
48680;BME280;34475;51.658;5.634;2022-12-18T05:46:03;102540;;;-6.8;100.0
48680;BME280;34475;51.658;5.634;2022-12-18T05:47:00;102540;;;-6.8;100.0
48680;BME280;34475;51.658;5.634;2022-12-18T05:48:00;102530;;;-6.9;100.0
48680;BME280;34475;51.658;5.634;2022-12-18T05:49:00;102530;;;-6.9;100.0
48680;BME280;34475;51.658;5.634;2022-12-18T05:50:00;102520;;;-7.1;100.0
48680;BME280;34475;51.658;5.634;2022-12-18T05:51:08;102520;;;-7.1;100.0
48680;BME280;34475;51.658;5.634;2022-12-18T05:52:00;102520;;;-7.0;100.0
48680;BME280;34475;51.658;5.634;2022-12-18T05:53:00;102520;;;-7.0;100.0
48680;BME280;34475;51.658;5.634;2022-12-18T05:54:00;102520;;;-7.0;100.0
48680;BME280;34475;51.658;5.634;2022-12-18T05:55:00;102520;;;-7.0;100.0